This is the latest recevied weather packets stored in our database for station/object N1TKS. If no packets are shown the sender has not sent any weather packets the latest 1 day(s).
| Time | Temp. | Humidity | Pressure | Rain* | Wind** | Luminosity | Snow |
|---|---|---|---|---|---|---|---|
| 1777984425 | 13.89° C | 84% | 1011.4 hPa | 0 mm | 0 m/s | - | - |
| 1777984314 | 15.56° C | 81% | 1011.4 hPa | 0 mm | 0 m/s | - | - |
| 1777984013 | 15.56° C | 82% | 1011.5 hPa | 0 mm | 0 m/s | - | - |
| 1777983416 | 14.44° C | 84% | 1011.6 hPa | 0 mm | 0 m/s | - | - |
| 1777983114 | 14.44° C | 84% | 1011.4 hPa | 0 mm | 0 m/s | - | - |
| 1777982812 | 13.89° C | 84% | 1011.4 hPa | 0 mm | 0 m/s | - | - |
| 1777982513 | 13.89° C | 84% | 1011.5 hPa | 0 mm | 0 m/s | - | - |
| 1777982213 | 13.89° C | 84% | 1011.5 hPa | 0 mm | 0 m/s | - | - |
| 1777981946 | 13.89° C | 85% | 1011.5 hPa | 0 mm | 0 m/s | - | - |
| 1777981914 | 13.89° C | 85% | 1011.5 hPa | 0 mm | 0 m/s | - | - |
| 1777981614 | 13.89° C | 85% | 1011.3 hPa | 0 mm | 0 m/s | - | - |
| 1777981316 | 13.89° C | 86% | 1011.3 hPa | 0 mm | 0 m/s | - | - |
| 1777980113 | 12.22° C | 89% | 1011.6 hPa | 0 mm | 0 m/s | - | - |
| 1777978660 | 10° C | 88% | 1011.4 hPa | 0 mm | 0 m/s | - | - |
| 1777978395 | 10° C | 89% | 1011.6 hPa | 0 mm | 0 m/s | - | - |
| 1777978312 | 10° C | 89% | 1011.6 hPa | 0 mm | 0 m/s | - | - |
| 1777978013 | 10° C | 88% | 1011.6 hPa | 0 mm | 0 m/s | - | - |
| 1777977539 | 10° C | 88% | 1011.4 hPa | 0 mm | 0 m/s | - | - |
| 1777977414 | 10° C | 88% | 1011.4 hPa | 0 mm | 0 m/s | - | - |
| 1777977113 | 10° C | 88% | 1011.4 hPa | 0 mm | 0 m/s | - | - |
| 1777976813 | 10° C | 88% | 1011.4 hPa | 0 mm | 0 m/s | - | - |
| 1777976513 | 9.44° C | 88% | 1011.1 hPa | 0 mm | 0 m/s | - | - |
| 1777974713 | 9.44° C | 88% | 1010.7 hPa | 0 mm | 0 m/s | - | - |
| 1777974414 | 10° C | 88% | 1010.6 hPa | 0 mm | 0 m/s | - | - |
| 1777974112 | 10° C | 88% | 1010.6 hPa | 0 mm | 0 m/s | - | - |
* Rain latest hour (hover to see other rain measurements)
** Current wind speed in m/s (hover to see current wind gust speed)